Sterrenberg, Netherlands
Current Conditions -  °F | °C
As of 7:25 PM on Tuesday 21 Oct 2014 (Local Time) from EHDL Reporting Station
Broken Clouds Broken Clouds  
Wind Chill: 43°   Ceiling: 13000
Heat Index: 48°   Visibility: 6mi
Dew Point: 45°   Wind: 12mph
Humidity: 87%   Direction: 260°W
Pressure: 29.56"   Gusts: NA
Location:  51.99°N, 5.88°E
Report Text: EHDL 211725Z AUTO 26010KT 9999 FEW015TCU SCT072 BKN130 09/07 Q1001 BLU
Loading
Personal Weather Stations






























Interactive Weather Map
Tropical Storm Tracking
New forecast layout! Learn more

10-Day Weather Forecast

Advertisements
Track Severe Weather on mobile